Cornion — CQMH — position and weather

sailwx.info

Track history (hours):
 
Tides and Currents Weather Stations Pressure Air Temp Water Temp Dewpoint Dewpoint Depression Visibility Wind Speed Wind Dir Waves Ship Positions

Cornion

Last reported at 2017-Nov-19 05:28 UTC. Time now 2017-Nov-20 03:55 UTC.
Position N 50°17' W 005°52'.

Length 90 m; draft 5.8 m.

Type: Cargo ship. MMSI: 255803370.

Date/timePositionNaut miles runAvg speedWind from/ knotsBaromVisibWave heightAir tempDewpointWater temp
2017-Nov-19 05:28N 50°17' W 005°52'510.8
2017-Nov-19 04:59N 50°12' W 005°52'510.9
2017-Nov-19 04:30N 50°07' W 005°52'7 9.4
2017-Nov-19 03:46N 50°00' W 005°51'2810.0
2017-Nov-19 00:57N 49°55' W 005°07'1510.5
2017-Nov-18 23:30N 49°56' W 004°44'1010.5
2017-Nov-18 22:35N 49°56' W 004°29'110.4
2017-Nov-18 22:29N 49°56' W 004°27'810.2
2017-Nov-18 21:43N 49°56' W 004°15'19 9.3
2017-Nov-18 19:43N 49°57' W 003°46'2 8.4
2017-Nov-18 19:30N 49°57' W 003°43'4 8.2
2017-Nov-18 18:59N 49°57' W 003°37'4 7.9
2017-Nov-18 18:25N 49°57' W 003°30'3 7.8
2017-Nov-18 18:00N 49°58' W 003°25'4 7.9
2017-Nov-18 17:30N 49°58' W 003°19'4 8.1
2017-Nov-18 17:00N 49°58' W 003°12'4 8.4
2017-Nov-18 16:30N 49°58' W 003°06'4 8.7
2017-Nov-18 16:00N 49°58' W 002°59'5 9.6
2017-Nov-18 15:28N 49°59' W 002°51'610.5
2017-Nov-18 14:57N 50°00' W 002°43'91 9.4
2017-Nov-18 05:18N 50°25' W 000°26'3 9.9
2017-Nov-18 05:00N 50°25' W 000°22'510.4
2017-Nov-18 04:30N 50°27' W 000°14'510.9
2017-Nov-18 04:00N 50°28' W 000°06'611.1
2017-Nov-18 03:30N 50°30' E 000°02'611.3
2017-Nov-18 03:00N 50°32' E 000°11'611.3
2017-Nov-18 02:30N 50°33' E 000°20'611.2
2017-Nov-18 01:59N 50°35' E 000°28'510.8
2017-Nov-18 01:30N 50°37' E 000°36'510.1
2017-Nov-18 01:00N 50°40' E 000°41'510.1
2017-Nov-18 00:30N 50°44' E 000°47'5 9.7
2017-Nov-18 00:00N 50°47' E 000°53'5 9.1
2017-Nov-17 23:28N 50°50' E 000°59'5 8.7
2017-Nov-17 22:54N 50°53' E 001°05'4 8.7
2017-Nov-17 22:27N 50°56' E 001°10'4 8.6
2017-Nov-17 22:00N 50°58' E 001°15'4 9.1
2017-Nov-17 21:30N 51°01' E 001°20'510.1
2017-Nov-17 21:00N 51°04' E 001°26'611.8
2017-Nov-17 20:30N 51°08' E 001°34'612.7
2017-Nov-17 20:00N 51°12' E 001°41'612.5
2017-Nov-17 19:30N 51°17' E 001°47'612.9
2017-Nov-17 19:01N 51°23' E 001°51'612.0
2017-Nov-17 18:30N 51°28' E 001°57'611.4
2017-Nov-17 18:00N 51°32' E 002°03'510.8
2017-Nov-17 17:30N 51°36' E 002°09'85 8.7
2017-Nov-17 07:47N 52°31' E 003°55'310.0
2017-Nov-17 07:30N 52°31' E 003°59'510.0
2017-Nov-17 06:58N 52°31' E 004°08'4 9.7
2017-Nov-17 06:30N 52°30' E 004°15'5 9.5
2017-Nov-17 06:00N 52°29' E 004°23'5 9.1
2017-Nov-17 05:30N 52°28' E 004°30'4 7.3
2017-Nov-17 05:00N 52°28' E 004°36'0 0.3
2017-Nov-17 04:30N 52°28' E 004°36'3 5.1
2017-Nov-17 04:00N 52°27' E 004°40'5 9.4
2017-Nov-17 03:30N 52°26' E 004°47'3 6.7
2017-Nov-17 03:01N 52°24' E 004°52'0 0.7
2017-Nov-17 02:29N 52°24' E 004°52'0 0.0
2017-Nov-17 01:59N 52°24' E 004°52'0 0.0
2017-Nov-17 01:29N 52°24' E 004°52'0 0.0
2017-Nov-17 00:59N 52°24' E 004°51'0 0.0
2017-Nov-17 00:29N 52°24' E 004°51'0 0.0
2017-Nov-16 23:59N 52°24' E 004°51'0 0.0
2017-Nov-16 23:29N 52°24' E 004°52'0 0.0
2017-Nov-16 22:59N 52°24' E 004°52'0 0.0
2017-Nov-16 22:26N 52°24' E 004°52'0 0.0
2017-Nov-16 21:59N 52°24' E 004°52'0 0.0
2017-Nov-16 21:29N 52°24' E 004°52'0 0.0
2017-Nov-16 20:41N 52°24' E 004°52'0 0.0
2017-Nov-16 20:29N 52°24' E 004°52'0 0.0
2017-Nov-16 19:59N 52°24' E 004°52'0 0.0
2017-Nov-16 19:29N 52°24' E 004°52'0 0.0
2017-Nov-16 18:52N 52°24' E 004°52'0 0.0
2017-Nov-16 18:25N 52°24' E 004°52'0 0.0
2017-Nov-16 17:56N 52°24' E 004°52'0 0.0
2017-Nov-16 17:29N 52°24' E 004°52'0 0.0
2017-Nov-16 16:58N 52°24' E 004°52'0 0.0
2017-Nov-16 16:28N 52°24' E 004°52'0 0.0
2017-Nov-16 15:46N 52°24' E 004°52'0 0.0
2017-Nov-16 15:28N 52°24' E 004°52'0 0.0
2017-Nov-16 14:55N 52°24' E 004°52'0 0.0
2017-Nov-16 14:29N 52°24' E 004°52'0 0.0
2017-Nov-16 13:59N 52°24' E 004°52'0 0.0
2017-Nov-16 13:13N 52°24' E 004°52'0 0.0
2017-Nov-16 12:49N 52°24' E 004°52'0 0.0
2017-Nov-16 11:58N 52°24' E 004°52'0 0.0
2017-Nov-16 11:19N 52°24' E 004°52'0 0.0
2017-Nov-16 10:56N 52°24' E 004°52'0 0.0
2017-Nov-16 10:22N 52°24' E 004°52'0 0.1
2017-Nov-16 09:55N 52°24' E 004°51'0 0.0
2017-Nov-16 09:28N 52°24' E 004°51'0 0.0
2017-Nov-16 08:49N 52°24' E 004°51'0 0.0
2017-Nov-16 08:28N 52°24' E 004°51'0 0.0
2017-Nov-16 07:58N 52°24' E 004°51'0 0.0
2017-Nov-16 07:25N 52°24' E 004°51'0 0.0
2017-Nov-16 06:58N 52°24' E 004°51'0 0.0
2017-Nov-16 06:26N 52°24' E 004°51'0 0.0
2017-Nov-16 05:55N 52°24' E 004°51'0 0.0
2017-Nov-16 05:25N 52°24' E 004°51'0 0.0
2017-Nov-16 04:58N 52°24' E 004°51'0 0.0
2017-Nov-16 04:28N 52°24' E 004°51'0 0.0
2017-Nov-16 03:49N 52°24' E 004°51'0 0.0
2017-Nov-16 03:23N 52°24' E 004°51'0 0.0
2017-Nov-16 02:58N 52°24' E 004°51'0 0.0
2017-Nov-16 02:28N 52°24' E 004°51'0 0.0
2017-Nov-16 01:50N 52°24' E 004°51'0 0.0
2017-Nov-16 01:25N 52°24' E 004°51'0 0.0
2017-Nov-16 00:58N 52°24' E 004°51'0 0.0
2017-Nov-16 00:28N 52°24' E 004°51'0 0.0
2017-Nov-15 23:52N 52°24' E 004°51'0 0.0
2017-Nov-15 23:28N 52°24' E 004°51'0 0.0
2017-Nov-15 22:58N 52°24' E 004°51'0 0.0
2017-Nov-15 22:28N 52°24' E 004°51'0 0.0
2017-Nov-15 21:55N 52°24' E 004°51'0 0.0
2017-Nov-15 21:25N 52°24' E 004°51'0 0.0
2017-Nov-15 20:49N 52°24' E 004°51'0 0.0
2017-Nov-15 20:25N 52°24' E 004°51'0 0.0
2017-Nov-15 19:55N 52°24' E 004°51'1 1.5
2017-Nov-15 19:31N 52°24' E 004°52'5 9.8
2017-Nov-15 19:00N 52°26' E 004°45'5 9.7
2017-Nov-15 18:30N 52°28' E 004°37'1 2.7
2017-Nov-15 18:00N 52°28' E 004°35'4 8.5
2017-Nov-15 17:30N 52°28' E 004°28'4 8.3
2017-Nov-15 17:00N 52°28' E 004°21'5 9.9
2017-Nov-15 16:30N 52°29' E 004°13'510.6
2017-Nov-15 16:00N 52°28' E 004°05'511.0
2017-Nov-15 15:30N 52°27' E 003°56'510.0
2017-Nov-15 15:00N 52°22' E 003°52'511.1
2017-Nov-15 14:30N 52°17' E 003°52'611.3
2017-Nov-15 14:00N 52°11' E 003°54'611.5
2017-Nov-15 13:30N 52°06' E 003°56'4 8.6
2017-Nov-15 13:00N 52°02' E 003°57'510.2
2017-Nov-15 12:30N 51°59' E 004°04'5 9.5
2017-Nov-15 12:00N 51°57' E 004°11'4 8.7
2017-Nov-15 11:30N 51°54' E 004°17'2 4.0
2017-Nov-15 10:59N 51°54' E 004°20'0 0.0
2017-Nov-15 10:29N 51°54' E 004°20'0 0.0
2017-Nov-15 09:56N 51°54' E 004°20'0 0.0
2017-Nov-15 09:29N 51°54' E 004°20'0 0.0
2017-Nov-15 08:56N 51°54' E 004°20'0 0.0
2017-Nov-15 08:26N 51°54' E 004°20'0 0.0
2017-Nov-15 07:59N 51°54' E 004°20'0 0.0
2017-Nov-15 07:26N 51°54' E 004°20'0 0.0
2017-Nov-15 06:59N 51°54' E 004°20'0 0.0
2017-Nov-15 06:29N 51°54' E 004°20'0 0.0
2017-Nov-15 05:59N 51°54' E 004°20'0 0.0
2017-Nov-15 05:29N 51°54' E 004°20'0 0.0
2017-Nov-15 04:59N 51°54' E 004°20'0 0.0
2017-Nov-15 04:26N 51°54' E 004°20'0 0.0
2017-Nov-15 03:59N 51°54' E 004°20'0 0.0
2017-Nov-15 03:26N 51°54' E 004°20'0 0.0
2017-Nov-15 02:59N 51°54' E 004°20'0 0.0
2017-Nov-15 02:29N 51°54' E 004°20'0 0.0
2017-Nov-15 01:56N 51°54' E 004°20'0 0.0
2017-Nov-15 01:29N 51°54' E 004°20'0 0.0
2017-Nov-15 00:59N 51°54' E 004°20'0 0.0
2017-Nov-15 00:29N 51°54' E 004°20'0 0.0
2017-Nov-14 23:59N 51°54' E 004°20'0 0.0
2017-Nov-14 23:29N 51°54' E 004°20'0 0.0
2017-Nov-14 22:59N 51°54' E 004°20'0 0.0
2017-Nov-14 22:26N 51°54' E 004°20'0 0.0
2017-Nov-14 21:59N 51°54' E 004°20'0 0.0
2017-Nov-14 21:26N 51°54' E 004°20'0 0.0
2017-Nov-14 20:56N 51°54' E 004°20'0 0.0
2017-Nov-14 20:26N 51°54' E 004°20'0 0.0
2017-Nov-14 19:59N 51°54' E 004°20'0 0.0
2017-Nov-14 19:29N 51°54' E 004°20'0 0.0
2017-Nov-14 18:59N 51°54' E 004°20'0 0.0
2017-Nov-14 18:23N 51°54' E 004°20'0 0.0
2017-Nov-14 17:59N 51°54' E 004°20'0 0.0
2017-Nov-14 17:29N 51°54' E 004°20'0 0.0
2017-Nov-14 16:59N 51°54' E 004°20'0 0.0
2017-Nov-14 16:29N 51°54' E 004°20'0 0.0
2017-Nov-14 15:59N 51°54' E 004°20'0 0.0
2017-Nov-14 15:29N 51°54' E 004°20'0 0.0
2017-Nov-14 14:59N 51°54' E 004°20'0 0.0
2017-Nov-14 14:26N 51°54' E 004°20'0 0.0
2017-Nov-14 13:59N 51°54' E 004°20'0 0.0
2017-Nov-14 13:29N 51°54' E 004°20'0 0.0
2017-Nov-14 12:59N 51°54' E 004°20'0 0.0
2017-Nov-14 12:29N 51°54' E 004°20'0 0.0
2017-Nov-14 11:59N 51°54' E 004°20'0 0.0
2017-Nov-14 11:26N 51°54' E 004°20'0 0.0
2017-Nov-14 10:56N 51°54' E 004°20'0 0.0
2017-Nov-14 10:29N 51°54' E 004°20'0 0.0
2017-Nov-14 09:59N 51°54' E 004°20'0 0.0
2017-Nov-14 09:26N 51°54' E 004°20'0 0.0
2017-Nov-14 08:59N 51°54' E 004°20'0 0.0
2017-Nov-14 08:23N 51°54' E 004°20'0 0.0
2017-Nov-14 07:56N 51°54' E 004°20'0 0.0
2017-Nov-14 07:26N 51°54' E 004°20'0 0.0
2017-Nov-14 06:59N 51°54' E 004°20'0 0.0
2017-Nov-14 06:29N 51°54' E 004°20'0 0.0
2017-Nov-14 05:59N 51°54' E 004°20'0 0.0
2017-Nov-14 05:29N 51°54' E 004°20'0 0.0
2017-Nov-14 04:56N 51°54' E 004°20'0 0.0
2017-Nov-14 04:29N 51°54' E 004°20'0 0.0
2017-Nov-14 03:59N 51°54' E 004°20'0 0.0
2017-Nov-14 03:29N 51°54' E 004°20'0 0.0
2017-Nov-14 02:59N 51°54' E 004°20'0 0.0
2017-Nov-14 02:29N 51°54' E 004°20'0 0.0
2017-Nov-14 01:56N 51°54' E 004°20'0 0.0
2017-Nov-14 01:29N 51°54' E 004°20'0 0.0
2017-Nov-14 00:59N 51°54' E 004°20'0 0.0
2017-Nov-14 00:23N 51°54' E 004°20'0 0.0
2017-Nov-13 23:59N 51°54' E 004°20'0 0.0
2017-Nov-13 23:29N 51°54' E 004°20'0 0.0
2017-Nov-13 22:59N 51°54' E 004°20'0 0.0
2017-Nov-13 22:29N 51°54' E 004°20'0 0.0
2017-Nov-13 21:59N 51°54' E 004°20'0 0.0
2017-Nov-13 01:59N 51°54' E 004°20'0 0.0
2017-Nov-13 01:29N 51°54' E 004°20'0 0.0
2017-Nov-13 00:59N 51°54' E 004°20'0 0.0
2017-Nov-13 00:29N 51°54' E 004°20'0 0.0
2017-Nov-12 23:59N 51°54' E 004°20'0 0.0
2017-Nov-12 23:26N 51°54' E 004°20'0 0.0
2017-Nov-12 22:59N 51°54' E 004°20'0 0.0
2017-Nov-12 22:26N 51°54' E 004°20'0 0.0
2017-Nov-12 21:59N 51°54' E 004°20'0 0.0
2017-Nov-12 21:29N 51°54' E 004°20'0 0.0
2017-Nov-12 20:59N 51°54' E 004°20'0 0.0
2017-Nov-12 20:29N 51°54' E 004°20'0 0.0
2017-Nov-12 19:59N 51°54' E 004°20'0 0.0
2017-Nov-12 19:26N 51°54' E 004°20'0 0.0
2017-Nov-12 18:59N 51°54' E 004°20'0 0.0
2017-Nov-12 18:29N 51°54' E 004°20'0 0.0
2017-Nov-12 17:59N 51°54' E 004°20'0 0.0
2017-Nov-12 17:29N 51°54' E 004°20'0 0.0
2017-Nov-12 16:56N 51°54' E 004°20'0 0.0
2017-Nov-12 16:29N 51°54' E 004°20'0 0.0
2017-Nov-12 15:59N 51°54' E 004°20'0 0.0
2017-Nov-12 15:26N 51°54' E 004°20'0 0.0
2017-Nov-12 14:59N 51°54' E 004°20'0 0.0
2017-Nov-12 14:29N 51°54' E 004°20'0 0.0
2017-Nov-12 13:53N 51°54' E 004°20'0 0.0
2017-Nov-12 13:29N 51°54' E 004°20'0 0.0
2017-Nov-12 12:59N 51°54' E 004°20'0 0.0
2017-Nov-12 12:29N 51°54' E 004°20'0 0.0
2017-Nov-12 11:59N 51°54' E 004°20'0 0.0
2017-Nov-12 11:29N 51°54' E 004°20'0 0.0
2017-Nov-12 10:59N 51°54' E 004°20'0 0.0
2017-Nov-12 10:29N 51°54' E 004°20'0 0.0
2017-Nov-12 09:56N 51°54' E 004°20'0 0.0
2017-Nov-12 09:29N 51°54' E 004°20'0 0.0
2017-Nov-12 08:56N 51°54' E 004°20'0 0.0
2017-Nov-12 08:26N 51°54' E 004°20'0 0.0
2017-Nov-12 07:56N 51°54' E 004°20'0 0.0
2017-Nov-12 07:29N 51°54' E 004°20'0 0.0
2017-Nov-12 06:59N 51°54' E 004°20'0 0.0
2017-Nov-12 06:26N 51°54' E 004°20'0 0.0
2017-Nov-12 05:59N 51°54' E 004°20'0 0.0
2017-Nov-12 05:29N 51°54' E 004°20'0 0.0
2017-Nov-12 04:59N 51°54' E 004°20'0 0.0
2017-Nov-12 04:29N 51°54' E 004°20'0 0.0
2017-Nov-12 03:59N 51°54' E 004°20'0 0.0
2017-Nov-12 03:29N 51°54' E 004°20'0 0.0
2017-Nov-12 02:53N 51°54' E 004°20'0 0.0
2017-Nov-12 02:29N 51°54' E 004°20'0 0.0
2017-Nov-12 01:59N 51°54' E 004°20'0 0.0
2017-Nov-12 01:29N 51°54' E 004°20'0 0.0
2017-Nov-12 00:59N 51°54' E 004°20'0 0.0
2017-Nov-12 00:29N 51°54' E 004°20'0 0.0
2017-Nov-11 23:59N 51°54' E 004°20'0 0.0
2017-Nov-11 23:29N 51°54' E 004°20'0 0.0
2017-Nov-11 22:59N 51°54' E 004°20'0 0.0
2017-Nov-11 22:20N 51°54' E 004°20'0 0.0
2017-Nov-11 21:59N 51°54' E 004°20'0 0.0
2017-Nov-11 21:29N 51°54' E 004°20'0 0.0
2017-Nov-11 20:56N 51°54' E 004°20'0 0.0
2017-Nov-11 20:29N 51°54' E 004°20'0 0.0
2017-Nov-11 19:59N 51°54' E 004°20'0 0.0
2017-Nov-11 19:29N 51°54' E 004°20'0 0.0
2017-Nov-11 18:53N 51°54' E 004°20'0 0.0
2017-Nov-11 18:29N 51°54' E 004°20'0 0.0
2017-Nov-11 17:59N 51°54' E 004°20'0 0.0
2017-Nov-11 17:26N 51°54' E 004°20'0 0.0
2017-Nov-11 16:59N 51°54' E 004°20'0 0.0
2017-Nov-11 16:29N 51°54' E 004°20'0 0.0
2017-Nov-11 15:59N 51°54' E 004°20'0 0.0
2017-Nov-11 15:29N 51°54' E 004°20'0 0.0
2017-Nov-11 14:59N 51°54' E 004°20'0 0.0
2017-Nov-11 14:29N 51°54' E 004°20'0 0.0
2017-Nov-11 13:59N 51°54' E 004°20'0 0.0
2017-Nov-11 13:29N 51°54' E 004°20'0 0.0
2017-Nov-11 12:59N 51°54' E 004°20'0 0.0
2017-Nov-11 12:29N 51°54' E 004°20'0 0.0
2017-Nov-11 11:56N 51°54' E 004°20'0 0.0
2017-Nov-11 11:29N 51°54' E 004°20'0 0.0
2017-Nov-11 10:56N 51°54' E 004°20'0 0.0
2017-Nov-11 10:29N 51°54' E 004°20'0 0.0
2017-Nov-11 09:59N 51°54' E 004°20'0 0.0
2017-Nov-11 09:29N 51°54' E 004°20'0 0.0
2017-Nov-11 08:59N 51°54' E 004°20'0 0.0
2017-Nov-11 08:29N 51°54' E 004°20'0 0.0
2017-Nov-11 07:59N 51°54' E 004°20'0 0.0
2017-Nov-11 07:29N 51°54' E 004°20'0 0.0
2017-Nov-11 06:59N 51°54' E 004°20'0 0.0
2017-Nov-11 06:26N 51°54' E 004°20'0 0.0
2017-Nov-11 05:59N 51°54' E 004°20'0 0.0
2017-Nov-11 05:29N 51°54' E 004°20'0 0.0
2017-Nov-11 04:59N 51°54' E 004°20'0 0.0
2017-Nov-11 04:29N 51°54' E 004°20'0 0.0
2017-Nov-11 03:59N 51°54' E 004°20'0 0.0
2017-Nov-11 03:29N 51°54' E 004°20'0 0.0
2017-Nov-11 02:59N 51°54' E 004°20'0 0.0
2017-Nov-11 02:29N 51°54' E 004°20'0 0.0
2017-Nov-11 01:59N 51°54' E 004°20'0 0.0
2017-Nov-11 01:31N 51°54' E 004°20'2 3.5
2017-Nov-11 01:01N 51°54' E 004°17'3 6.7
2017-Nov-11 00:30N 51°56' E 004°13'3 6.9
2017-Nov-11 00:00N 51°58' E 004°08'4 7.6
2017-Nov-10 23:30N 51°59' E 004°02'4 7.5
2017-Nov-10 23:00N 51°60' E 003°56'4 8.2
2017-Nov-10 22:28N 51°59' E 003°49'4 8.5
2017-Nov-10 22:00N 51°58' E 003°43'48 8.0
2017-Nov-10 16:05N 51°41' E 002°31'2 8.0
2017-Nov-10 15:52N 51°40' E 002°30'5 7.8
2017-Nov-10 15:16N 51°36' E 002°25'2 7.8
2017-Nov-10 14:59N 51°34' E 002°22'4 7.8
2017-Nov-10 14:26N 51°31' E 002°18'3 7.2
2017-Nov-10 14:00N 51°28' E 002°15'4 7.4
2017-Nov-10 13:30N 51°25' E 002°13'3 7.1
2017-Nov-10 13:00N 51°22' E 002°10'4 7.1
2017-Nov-10 12:30N 51°19' E 002°08'3 6.7
2017-Nov-10 12:00N 51°16' E 002°05'4 7.0
2017-Nov-10 11:30N 51°13' E 002°03'4 7.1
2017-Nov-10 11:00N 51°10' E 001°59'4 8.0
2017-Nov-10 10:30N 51°08' E 001°53'4 8.2
2017-Nov-10 10:00N 51°06' E 001°47'4 8.5
2017-Nov-10 09:29N 51°03' E 001°43'4 8.9
2017-Nov-10 08:59N 50°60' E 001°38'110 9.8
2017-Nov-09 21:41N 50°08' W 000°56'210.2
2017-Nov-09 21:28N 50°07' W 000°59'5 9.8
2017-Nov-09 21:00N 50°06' W 001°06'5 9.1
2017-Nov-09 20:30N 50°05' W 001°13'4 8.6
2017-Nov-09 20:01N 50°04' W 001°19'4 7.7
2017-Nov-09 19:30N 50°03' W 001°25'4 7.2
2017-Nov-09 19:00N 50°02' W 001°30'3 6.6
2017-Nov-09 18:31N 50°01' W 001°35'3 6.4
2017-Nov-09 18:01N 50°00' W 001°40'3 6.1
2017-Nov-09 17:31N 49°60' W 001°45'3 6.0
2017-Nov-09 17:01N 49°59' W 001°49'3 6.3
2017-Nov-09 16:30N 49°58' W 001°54'7 7.0
2017-Nov-09 15:35N 49°56' W 002°04'1 7.9
2017-Nov-09 15:24N 49°56' W 002°06'  
Track history (hours):
 
Tides and Currents Weather Stations Pressure Air Temp Water Temp Dewpoint Dewpoint Depression Visibility Wind Speed Wind Dir Waves Ship Positions

Cornion

Last reported at 2017-Nov-19 05:28 UTC. Time now 2017-Nov-20 03:55 UTC.
Position N 50°17' W 005°52'.

Length 90 m; draft 5.8 m.

Type: Cargo ship. MMSI: 255803370.

Date/timePositionNaut miles runAvg speedWind from/ knotsBaromVisibWave heightAir tempDewpointWater temp
2017-Nov-19 05:28N 50°17' W 005°52'510.8
2017-Nov-19 04:59N 50°12' W 005°52'510.9
2017-Nov-19 04:30N 50°07' W 005°52'7 9.4
2017-Nov-19 03:46N 50°00' W 005°51'2810.0
2017-Nov-19 00:57N 49°55' W 005°07'1510.5
2017-Nov-18 23:30N 49°56' W 004°44'1010.5
2017-Nov-18 22:35N 49°56' W 004°29'110.4
2017-Nov-18 22:29N 49°56' W 004°27'810.2
2017-Nov-18 21:43N 49°56' W 004°15'19 9.3
2017-Nov-18 19:43N 49°57' W 003°46'2 8.4
2017-Nov-18 19:30N 49°57' W 003°43'4 8.2
2017-Nov-18 18:59N 49°57' W 003°37'4 7.9
2017-Nov-18 18:25N 49°57' W 003°30'3 7.8
2017-Nov-18 18:00N 49°58' W 003°25'4 7.9
2017-Nov-18 17:30N 49°58' W 003°19'4 8.1
2017-Nov-18 17:00N 49°58' W 003°12'4 8.4
2017-Nov-18 16:30N 49°58' W 003°06'4 8.7
2017-Nov-18 16:00N 49°58' W 002°59'5 9.6
2017-Nov-18 15:28N 49°59' W 002°51'610.5
2017-Nov-18 14:57N 50°00' W 002°43'91 9.4
2017-Nov-18 05:18N 50°25' W 000°26'3 9.9
2017-Nov-18 05:00N 50°25' W 000°22'510.4
2017-Nov-18 04:30N 50°27' W 000°14'510.9
2017-Nov-18 04:00N 50°28' W 000°06'611.1
2017-Nov-18 03:30N 50°30' E 000°02'611.3
2017-Nov-18 03:00N 50°32' E 000°11'611.3
2017-Nov-18 02:30N 50°33' E 000°20'611.2
2017-Nov-18 01:59N 50°35' E 000°28'510.8
2017-Nov-18 01:30N 50°37' E 000°36'510.1
2017-Nov-18 01:00N 50°40' E 000°41'510.1
2017-Nov-18 00:30N 50°44' E 000°47'5 9.7
2017-Nov-18 00:00N 50°47' E 000°53'5 9.1
2017-Nov-17 23:28N 50°50' E 000°59'5 8.7
2017-Nov-17 22:54N 50°53' E 001°05'4 8.7
2017-Nov-17 22:27N 50°56' E 001°10'4 8.6
2017-Nov-17 22:00N 50°58' E 001°15'4 9.1
2017-Nov-17 21:30N 51°01' E 001°20'510.1
2017-Nov-17 21:00N 51°04' E 001°26'611.8
2017-Nov-17 20:30N 51°08' E 001°34'612.7
2017-Nov-17 20:00N 51°12' E 001°41'612.5
2017-Nov-17 19:30N 51°17' E 001°47'612.9
2017-Nov-17 19:01N 51°23' E 001°51'612.0
2017-Nov-17 18:30N 51°28' E 001°57'611.4
2017-Nov-17 18:00N 51°32' E 002°03'510.8
2017-Nov-17 17:30N 51°36' E 002°09'85 8.7
2017-Nov-17 07:47N 52°31' E 003°55'310.0
2017-Nov-17 07:30N 52°31' E 003°59'510.0
2017-Nov-17 06:58N 52°31' E 004°08'4 9.7
2017-Nov-17 06:30N 52°30' E 004°15'5 9.5
2017-Nov-17 06:00N 52°29' E 004°23'5 9.1
2017-Nov-17 05:30N 52°28' E 004°30'4 7.3
2017-Nov-17 05:00N 52°28' E 004°36'0 0.3
2017-Nov-17 04:30N 52°28' E 004°36'3 5.1
2017-Nov-17 04:00N 52°27' E 004°40'5 9.4
2017-Nov-17 03:30N 52°26' E 004°47'3 6.7
2017-Nov-17 03:01N 52°24' E 004°52'0 0.7
2017-Nov-17 02:29N 52°24' E 004°52'0 0.0
2017-Nov-17 01:59N 52°24' E 004°52'0 0.0
2017-Nov-17 01:29N 52°24' E 004°52'0 0.0
2017-Nov-17 00:59N 52°24' E 004°51'0 0.0
2017-Nov-17 00:29N 52°24' E 004°51'0 0.0
2017-Nov-16 23:59N 52°24' E 004°51'0 0.0
2017-Nov-16 23:29N 52°24' E 004°52'0 0.0
2017-Nov-16 22:59N 52°24' E 004°52'0 0.0
2017-Nov-16 22:26N 52°24' E 004°52'0 0.0
2017-Nov-16 21:59N 52°24' E 004°52'0 0.0
2017-Nov-16 21:29N 52°24' E 004°52'0 0.0
2017-Nov-16 20:41N 52°24' E 004°52'0 0.0
2017-Nov-16 20:29N 52°24' E 004°52'0 0.0
2017-Nov-16 19:59N 52°24' E 004°52'0 0.0
2017-Nov-16 19:29N 52°24' E 004°52'0 0.0
2017-Nov-16 18:52N 52°24' E 004°52'0 0.0
2017-Nov-16 18:25N 52°24' E 004°52'0 0.0
2017-Nov-16 17:56N 52°24' E 004°52'0 0.0
2017-Nov-16 17:29N 52°24' E 004°52'0 0.0
2017-Nov-16 16:58N 52°24' E 004°52'0 0.0
2017-Nov-16 16:28N 52°24' E 004°52'0 0.0
2017-Nov-16 15:46N 52°24' E 004°52'0 0.0
2017-Nov-16 15:28N 52°24' E 004°52'0 0.0
2017-Nov-16 14:55N 52°24' E 004°52'0 0.0
2017-Nov-16 14:29N 52°24' E 004°52'0 0.0
2017-Nov-16 13:59N 52°24' E 004°52'0 0.0
2017-Nov-16 13:13N 52°24' E 004°52'0 0.0
2017-Nov-16 12:49N 52°24' E 004°52'0 0.0
2017-Nov-16 11:58N 52°24' E 004°52'0 0.0
2017-Nov-16 11:19N 52°24' E 004°52'0 0.0
2017-Nov-16 10:56N 52°24' E 004°52'0 0.0
2017-Nov-16 10:22N 52°24' E 004°52'0 0.1
2017-Nov-16 09:55N 52°24' E 004°51'0 0.0
2017-Nov-16 09:28N 52°24' E 004°51'0 0.0
2017-Nov-16 08:49N 52°24' E 004°51'0 0.0
2017-Nov-16 08:28N 52°24' E 004°51'0 0.0
2017-Nov-16 07:58N 52°24' E 004°51'0 0.0
2017-Nov-16 07:25N 52°24' E 004°51'0 0.0
2017-Nov-16 06:58N 52°24' E 004°51'0 0.0
2017-Nov-16 06:26N 52°24' E 004°51'0 0.0
2017-Nov-16 05:55N 52°24' E 004°51'0 0.0
2017-Nov-16 05:25N 52°24' E 004°51'0 0.0
2017-Nov-16 04:58N 52°24' E 004°51'0 0.0
2017-Nov-16 04:28N 52°24' E 004°51'0 0.0
2017-Nov-16 03:49N 52°24' E 004°51'0 0.0
2017-Nov-16 03:23N 52°24' E 004°51'0 0.0
2017-Nov-16 02:58N 52°24' E 004°51'0 0.0
2017-Nov-16 02:28N 52°24' E 004°51'0 0.0
2017-Nov-16 01:50N 52°24' E 004°51'0 0.0
2017-Nov-16 01:25N 52°24' E 004°51'0 0.0
2017-Nov-16 00:58N 52°24' E 004°51'0 0.0
2017-Nov-16 00:28N 52°24' E 004°51'0 0.0
2017-Nov-15 23:52N 52°24' E 004°51'0 0.0
2017-Nov-15 23:28N 52°24' E 004°51'0 0.0
2017-Nov-15 22:58N 52°24' E 004°51'0 0.0
2017-Nov-15 22:28N 52°24' E 004°51'0 0.0
2017-Nov-15 21:55N 52°24' E 004°51'0 0.0
2017-Nov-15 21:25N 52°24' E 004°51'0 0.0
2017-Nov-15 20:49N 52°24' E 004°51'0 0.0
2017-Nov-15 20:25N 52°24' E 004°51'0 0.0
2017-Nov-15 19:55N 52°24' E 004°51'1 1.5
2017-Nov-15 19:31N 52°24' E 004°52'5 9.8
2017-Nov-15 19:00N 52°26' E 004°45'5 9.7
2017-Nov-15 18:30N 52°28' E 004°37'1 2.7
2017-Nov-15 18:00N 52°28' E 004°35'4 8.5
2017-Nov-15 17:30N 52°28' E 004°28'4 8.3
2017-Nov-15 17:00N 52°28' E 004°21'5 9.9
2017-Nov-15 16:30N 52°29' E 004°13'510.6
2017-Nov-15 16:00N 52°28' E 004°05'511.0
2017-Nov-15 15:30N 52°27' E 003°56'510.0
2017-Nov-15 15:00N 52°22' E 003°52'511.1
2017-Nov-15 14:30N 52°17' E 003°52'611.3
2017-Nov-15 14:00N 52°11' E 003°54'611.5
2017-Nov-15 13:30N 52°06' E 003°56'4 8.6
2017-Nov-15 13:00N 52°02' E 003°57'510.2
2017-Nov-15 12:30N 51°59' E 004°04'5 9.5
2017-Nov-15 12:00N 51°57' E 004°11'4 8.7
2017-Nov-15 11:30N 51°54' E 004°17'2 4.0
2017-Nov-15 10:59N 51°54' E 004°20'0 0.0
2017-Nov-15 10:29N 51°54' E 004°20'0 0.0
2017-Nov-15 09:56N 51°54' E 004°20'0 0.0
2017-Nov-15 09:29N 51°54' E 004°20'0 0.0
2017-Nov-15 08:56N 51°54' E 004°20'0 0.0
2017-Nov-15 08:26N 51°54' E 004°20'0 0.0
2017-Nov-15 07:59N 51°54' E 004°20'0 0.0
2017-Nov-15 07:26N 51°54' E 004°20'0 0.0
2017-Nov-15 06:59N 51°54' E 004°20'0 0.0
2017-Nov-15 06:29N 51°54' E 004°20'0 0.0
2017-Nov-15 05:59N 51°54' E 004°20'0 0.0
2017-Nov-15 05:29N 51°54' E 004°20'0 0.0
2017-Nov-15 04:59N 51°54' E 004°20'0 0.0
2017-Nov-15 04:26N 51°54' E 004°20'0 0.0
2017-Nov-15 03:59N 51°54' E 004°20'0 0.0
2017-Nov-15 03:26N 51°54' E 004°20'0 0.0
2017-Nov-15 02:59N 51°54' E 004°20'0 0.0
2017-Nov-15 02:29N 51°54' E 004°20'0 0.0
2017-Nov-15 01:56N 51°54' E 004°20'0 0.0
2017-Nov-15 01:29N 51°54' E 004°20'0 0.0
2017-Nov-15 00:59N 51°54' E 004°20'0 0.0
2017-Nov-15 00:29N 51°54' E 004°20'0 0.0
2017-Nov-14 23:59N 51°54' E 004°20'0 0.0
2017-Nov-14 23:29N 51°54' E 004°20'0 0.0
2017-Nov-14 22:59N 51°54' E 004°20'0 0.0
2017-Nov-14 22:26N 51°54' E 004°20'0 0.0
2017-Nov-14 21:59N 51°54' E 004°20'0 0.0
2017-Nov-14 21:26N 51°54' E 004°20'0 0.0
2017-Nov-14 20:56N 51°54' E 004°20'0 0.0
2017-Nov-14 20:26N 51°54' E 004°20'0 0.0
2017-Nov-14 19:59N 51°54' E 004°20'0 0.0
2017-Nov-14 19:29N 51°54' E 004°20'0 0.0
2017-Nov-14 18:59N 51°54' E 004°20'0 0.0
2017-Nov-14 18:23N 51°54' E 004°20'0 0.0
2017-Nov-14 17:59N 51°54' E 004°20'0 0.0
2017-Nov-14 17:29N 51°54' E 004°20'0 0.0
2017-Nov-14 16:59N 51°54' E 004°20'0 0.0
2017-Nov-14 16:29N 51°54' E 004°20'0 0.0
2017-Nov-14 15:59N 51°54' E 004°20'0 0.0
2017-Nov-14 15:29N 51°54' E 004°20'0 0.0
2017-Nov-14 14:59N 51°54' E 004°20'0 0.0
2017-Nov-14 14:26N 51°54' E 004°20'0 0.0
2017-Nov-14 13:59N 51°54' E 004°20'0 0.0
2017-Nov-14 13:29N 51°54' E 004°20'0 0.0
2017-Nov-14 12:59N 51°54' E 004°20'0 0.0
2017-Nov-14 12:29N 51°54' E 004°20'0 0.0
2017-Nov-14 11:59N 51°54' E 004°20'0 0.0
2017-Nov-14 11:26N 51°54' E 004°20'0 0.0
2017-Nov-14 10:56N 51°54' E 004°20'0 0.0
2017-Nov-14 10:29N 51°54' E 004°20'0 0.0
2017-Nov-14 09:59N 51°54' E 004°20'0 0.0
2017-Nov-14 09:26N 51°54' E 004°20'0 0.0
2017-Nov-14 08:59N 51°54' E 004°20'0 0.0
2017-Nov-14 08:23N 51°54' E 004°20'0 0.0
2017-Nov-14 07:56N 51°54' E 004°20'0 0.0
2017-Nov-14 07:26N 51°54' E 004°20'0 0.0
2017-Nov-14 06:59N 51°54' E 004°20'0 0.0
2017-Nov-14 06:29N 51°54' E 004°20'0 0.0
2017-Nov-14 05:59N 51°54' E 004°20'0 0.0
2017-Nov-14 05:29N 51°54' E 004°20'0 0.0
2017-Nov-14 04:56N 51°54' E 004°20'0 0.0
2017-Nov-14 04:29N 51°54' E 004°20'0 0.0
2017-Nov-14 03:59N 51°54' E 004°20'0 0.0
2017-Nov-14 03:29N 51°54' E 004°20'0 0.0
2017-Nov-14 02:59N 51°54' E 004°20'0 0.0
2017-Nov-14 02:29N 51°54' E 004°20'0 0.0
2017-Nov-14 01:56N 51°54' E 004°20'0 0.0
2017-Nov-14 01:29N 51°54' E 004°20'0 0.0
2017-Nov-14 00:59N 51°54' E 004°20'0 0.0
2017-Nov-14 00:23N 51°54' E 004°20'0 0.0
2017-Nov-13 23:59N 51°54' E 004°20'0 0.0
2017-Nov-13 23:29N 51°54' E 004°20'0 0.0
2017-Nov-13 22:59N 51°54' E 004°20'0 0.0
2017-Nov-13 22:29N 51°54' E 004°20'0 0.0
2017-Nov-13 21:59N 51°54' E 004°20'0 0.0
2017-Nov-13 01:59N 51°54' E 004°20'0 0.0
2017-Nov-13 01:29N 51°54' E 004°20'0 0.0
2017-Nov-13 00:59N 51°54' E 004°20'0 0.0
2017-Nov-13 00:29N 51°54' E 004°20'0 0.0
2017-Nov-12 23:59N 51°54' E 004°20'0 0.0
2017-Nov-12 23:26N 51°54' E 004°20'0 0.0
2017-Nov-12 22:59N 51°54' E 004°20'0 0.0
2017-Nov-12 22:26N 51°54' E 004°20'0 0.0
2017-Nov-12 21:59N 51°54' E 004°20'0 0.0
2017-Nov-12 21:29N 51°54' E 004°20'0 0.0
2017-Nov-12 20:59N 51°54' E 004°20'0 0.0
2017-Nov-12 20:29N 51°54' E 004°20'0 0.0
2017-Nov-12 19:59N 51°54' E 004°20'0 0.0
2017-Nov-12 19:26N 51°54' E 004°20'0 0.0
2017-Nov-12 18:59N 51°54' E 004°20'0 0.0
2017-Nov-12 18:29N 51°54' E 004°20'0 0.0
2017-Nov-12 17:59N 51°54' E 004°20'0 0.0
2017-Nov-12 17:29N 51°54' E 004°20'0 0.0
2017-Nov-12 16:56N 51°54' E 004°20'0 0.0
2017-Nov-12 16:29N 51°54' E 004°20'0 0.0
2017-Nov-12 15:59N 51°54' E 004°20'0 0.0
2017-Nov-12 15:26N 51°54' E 004°20'0 0.0
2017-Nov-12 14:59N 51°54' E 004°20'0 0.0
2017-Nov-12 14:29N 51°54' E 004°20'0 0.0
2017-Nov-12 13:53N 51°54' E 004°20'0 0.0
2017-Nov-12 13:29N 51°54' E 004°20'0 0.0
2017-Nov-12 12:59N 51°54' E 004°20'0 0.0
2017-Nov-12 12:29N 51°54' E 004°20'0 0.0
2017-Nov-12 11:59N 51°54' E 004°20'0 0.0
2017-Nov-12 11:29N 51°54' E 004°20'0 0.0
2017-Nov-12 10:59N 51°54' E 004°20'0 0.0
2017-Nov-12 10:29N 51°54' E 004°20'0 0.0
2017-Nov-12 09:56N 51°54' E 004°20'0 0.0
2017-Nov-12 09:29N 51°54' E 004°20'0 0.0
2017-Nov-12 08:56N 51°54' E 004°20'0 0.0
2017-Nov-12 08:26N 51°54' E 004°20'0 0.0
2017-Nov-12 07:56N 51°54' E 004°20'0 0.0
2017-Nov-12 07:29N 51°54' E 004°20'0 0.0
2017-Nov-12 06:59N 51°54' E 004°20'0 0.0
2017-Nov-12 06:26N 51°54' E 004°20'0 0.0
2017-Nov-12 05:59N 51°54' E 004°20'0 0.0
2017-Nov-12 05:29N 51°54' E 004°20'0 0.0
2017-Nov-12 04:59N 51°54' E 004°20'0 0.0
2017-Nov-12 04:29N 51°54' E 004°20'0 0.0
2017-Nov-12 03:59N 51°54' E 004°20'0 0.0
2017-Nov-12 03:29N 51°54' E 004°20'0 0.0
2017-Nov-12 02:53N 51°54' E 004°20'0 0.0
2017-Nov-12 02:29N 51°54' E 004°20'0 0.0
2017-Nov-12 01:59N 51°54' E 004°20'0 0.0
2017-Nov-12 01:29N 51°54' E 004°20'0 0.0
2017-Nov-12 00:59N 51°54' E 004°20'0 0.0
2017-Nov-12 00:29N 51°54' E 004°20'0 0.0
2017-Nov-11 23:59N 51°54' E 004°20'0 0.0
2017-Nov-11 23:29N 51°54' E 004°20'0 0.0
2017-Nov-11 22:59N 51°54' E 004°20'0 0.0
2017-Nov-11 22:20N 51°54' E 004°20'0 0.0
2017-Nov-11 21:59N 51°54' E 004°20'0 0.0
2017-Nov-11 21:29N 51°54' E 004°20'0 0.0
2017-Nov-11 20:56N 51°54' E 004°20'0 0.0
2017-Nov-11 20:29N 51°54' E 004°20'0 0.0
2017-Nov-11 19:59N 51°54' E 004°20'0 0.0
2017-Nov-11 19:29N 51°54' E 004°20'0 0.0
2017-Nov-11 18:53N 51°54' E 004°20'0 0.0
2017-Nov-11 18:29N 51°54' E 004°20'0 0.0
2017-Nov-11 17:59N 51°54' E 004°20'0 0.0
2017-Nov-11 17:26N 51°54' E 004°20'0 0.0
2017-Nov-11 16:59N 51°54' E 004°20'0 0.0
2017-Nov-11 16:29N 51°54' E 004°20'0 0.0
2017-Nov-11 15:59N 51°54' E 004°20'0 0.0
2017-Nov-11 15:29N 51°54' E 004°20'0 0.0
2017-Nov-11 14:59N 51°54' E 004°20'0 0.0
2017-Nov-11 14:29N 51°54' E 004°20'0 0.0
2017-Nov-11 13:59N 51°54' E 004°20'0 0.0
2017-Nov-11 13:29N 51°54' E 004°20'0 0.0
2017-Nov-11 12:59N 51°54' E 004°20'0 0.0
2017-Nov-11 12:29N 51°54' E 004°20'0 0.0
2017-Nov-11 11:56N 51°54' E 004°20'0 0.0
2017-Nov-11 11:29N 51°54' E 004°20'0 0.0
2017-Nov-11 10:56N 51°54' E 004°20'0 0.0
2017-Nov-11 10:29N 51°54' E 004°20'0 0.0
2017-Nov-11 09:59N 51°54' E 004°20'0 0.0
2017-Nov-11 09:29N 51°54' E 004°20'0 0.0
2017-Nov-11 08:59N 51°54' E 004°20'0 0.0
2017-Nov-11 08:29N 51°54' E 004°20'0 0.0
2017-Nov-11 07:59N 51°54' E 004°20'0 0.0
2017-Nov-11 07:29N 51°54' E 004°20'0 0.0
2017-Nov-11 06:59N 51°54' E 004°20'0 0.0
2017-Nov-11 06:26N 51°54' E 004°20'0 0.0
2017-Nov-11 05:59N 51°54' E 004°20'0 0.0
2017-Nov-11 05:29N 51°54' E 004°20'0 0.0
2017-Nov-11 04:59N 51°54' E 004°20'0 0.0
2017-Nov-11 04:29N 51°54' E 004°20'0 0.0
2017-Nov-11 03:59N 51°54' E 004°20'0 0.0
2017-Nov-11 03:29N 51°54' E 004°20'0 0.0
2017-Nov-11 02:59N 51°54' E 004°20'0 0.0
2017-Nov-11 02:29N 51°54' E 004°20'0 0.0
2017-Nov-11 01:59N 51°54' E 004°20'0 0.0
2017-Nov-11 01:31N 51°54' E 004°20'2 3.5
2017-Nov-11 01:01N 51°54' E 004°17'3 6.7
2017-Nov-11 00:30N 51°56' E 004°13'3 6.9
2017-Nov-11 00:00N 51°58' E 004°08'4 7.6
2017-Nov-10 23:30N 51°59' E 004°02'4 7.5
2017-Nov-10 23:00N 51°60' E 003°56'4 8.2
2017-Nov-10 22:28N 51°59' E 003°49'4 8.5
2017-Nov-10 22:00N 51°58' E 003°43'48 8.0
2017-Nov-10 16:05N 51°41' E 002°31'2 8.0
2017-Nov-10 15:52N 51°40' E 002°30'5 7.8
2017-Nov-10 15:16N 51°36' E 002°25'2 7.8
2017-Nov-10 14:59N 51°34' E 002°22'4 7.8
2017-Nov-10 14:26N 51°31' E 002°18'3 7.2
2017-Nov-10 14:00N 51°28' E 002°15'4 7.4
2017-Nov-10 13:30N 51°25' E 002°13'3 7.1
2017-Nov-10 13:00N 51°22' E 002°10'4 7.1
2017-Nov-10 12:30N 51°19' E 002°08'3 6.7
2017-Nov-10 12:00N 51°16' E 002°05'4 7.0
2017-Nov-10 11:30N 51°13' E 002°03'4 7.1
2017-Nov-10 11:00N 51°10' E 001°59'4 8.0
2017-Nov-10 10:30N 51°08' E 001°53'4 8.2
2017-Nov-10 10:00N 51°06' E 001°47'4 8.5
2017-Nov-10 09:29N 51°03' E 001°43'4 8.9
2017-Nov-10 08:59N 50°60' E 001°38'110 9.8
2017-Nov-09 21:41N 50°08' W 000°56'210.2
2017-Nov-09 21:28N 50°07' W 000°59'5 9.8
2017-Nov-09 21:00N 50°06' W 001°06'5 9.1
2017-Nov-09 20:30N 50°05' W 001°13'4 8.6
2017-Nov-09 20:01N 50°04' W 001°19'4 7.7
2017-Nov-09 19:30N 50°03' W 001°25'4 7.2
2017-Nov-09 19:00N 50°02' W 001°30'3 6.6
2017-Nov-09 18:31N 50°01' W 001°35'3 6.4
2017-Nov-09 18:01N 50°00' W 001°40'3 6.1
2017-Nov-09 17:31N 49°60' W 001°45'3 6.0
2017-Nov-09 17:01N 49°59' W 001°49'3 6.3
2017-Nov-09 16:30N 49°58' W 001°54'7 7.0
2017-Nov-09 15:35N 49°56' W 002°04'1 7.9
2017-Nov-09 15:24N 49°56' W 002°06'  

Dump ship's entire track history